Welcome to Northern Hawkes Bay. New Zealand.
PWS Header
      nz Flag



Hit Counter


W3C Valid W3C Valid logo


    Wairoa

Select any of the Stations below to visit their websites.










Historic Data from Weather Underground
Select the location of interest below. Wairoa is the default. Please have patience, this Data is slow to load in.
Northern Hawkes Bay Historical Data
Daily Summary for February 5, 2017 Units:  Metric    English   Both
« Previous Day
Next Day »
Daily Weekly Monthly Yearly Custom
  High: Low: Average:
Temperature: 30.6 °C 11.9 °C 20.1 °C
Dew Point: 16.3 °C 11.1 °C 13.8 °C
Humidity: 97% 39% 70%
Wind Speed: 12.2km/h 0.0km/h 4.7km/h
Wind Gust: 24.5km/h - -
Wind- - SW
Pressure: 1019.5 hPa 1015.8 hPa -
Precipitation: 0.0 mm    
Historical Graphs
 
 
Tabular Data for February 5, 2017
Time Temperature Dew Point Pressure Wind Wind Speed Wind Gust Humidity Rainfall Rate (Hourly) solar
00:00 15.5 °C 13.0 °C 1017.2 hPa Calm   3.5 km/h 85% 0.0 mm 0 W/m2
00:05 15.4 °C 12.9 °C 1017.5 hPa Calm   2.6 km/h 85% 0.0 mm 0 W/m2
00:07 15.4 °C 12.9 °C 1017.5 hPa Calm   1.1 km/h 85% 0.0 mm 0 W/m2
00:12 15.3 °C 13.0 °C 1017.2 hPa Calm   2.6 km/h 86% 0.0 mm 0 W/m2
00:17 15.3 °C 13.2 °C 1017.5 hPa Calm   3.5 km/h 87% 0.0 mm 0 W/m2
00:22 15.3 °C 13.2 °C 1017.5 hPa Calm   3.5 km/h 87% 0.0 mm 0 W/m2
00:27 15.2 °C 13.1 °C 1017.5 hPa Calm   3.5 km/h 87% 0.0 mm 0 W/m2
00:32 15.1 °C 12.9 °C 1017.5 hPa Calm     87% 0.0 mm 0 W/m2
00:37 15.1 °C 12.9 °C 1017.5 hPa Calm   1.1 km/h 87% 0.0 mm 0 W/m2
00:42 15.0 °C 13.1 °C 1017.8 hPa Calm   2.6 km/h 88% 0.0 mm 0 W/m2
00:47 15.0 °C 13.1 °C 1017.8 hPa Calm   2.6 km/h 88% 0.0 mm 0 W/m2
00:52 15.0 °C 13.1 °C 1017.5 hPa Calm   2.6 km/h 88% 0.0 mm 0 W/m2
00:57 14.9 °C 13.1 °C 1017.8 hPa Calm   2.6 km/h 89% 0.0 mm 0 W/m2
01:02 14.9 °C 13.1 °C 1017.5 hPa North 1.1 km/h 2.6 km/h 89% 0.0 mm 0 W/m2
01:07 14.8 °C 13.2 °C 1017.5 hPa North 2.6 km/h 3.5 km/h 90% 0.0 mm 0 W/m2
01:12 14.8 °C 13.2 °C 1017.5 hPa North 2.6 km/h 6.1 km/h 90% 0.0 mm 0 W/m2
01:17 14.7 °C 13.1 °C 1017.5 hPa North 2.6 km/h 6.1 km/h 90% 0.0 mm 0 W/m2
01:22 14.7 °C 13.1 °C 1017.5 hPa North 3.5 km/h 6.1 km/h 90% 0.0 mm 0 W/m2
01:27 14.7 °C 13.1 °C 1017.5 hPa NNW 2.6 km/h 6.1 km/h 90% 0.0 mm 0 W/m2
01:32 14.6 °C 13.0 °C 1017.2 hPa NNW 2.6 km/h 6.1 km/h 90% 0.0 mm 0 W/m2
01:37 14.5 °C 12.9 °C 1017.5 hPa NNW 3.5 km/h 6.1 km/h 90% 0.0 mm 0 W/m2
01:42 14.3 °C 12.7 °C 1017.5 hPa NNW 5.0 km/h 8.7 km/h 90% 0.0 mm 0 W/m2
01:47 14.2 °C 12.6 °C 1017.2 hPa NW 2.6 km/h 8.7 km/h 90% 0.0 mm 0 W/m2
01:52 14.1 °C 12.7 °C 1017.2 hPa NW 3.5 km/h 7.2 km/h 91% 0.0 mm 0 W/m2
01:57 14.0 °C 12.6 °C 1017.2 hPa NNW 3.5 km/h 7.2 km/h 91% 0.0 mm 0 W/m2
02:02 14.0 °C 12.6 °C 1017.2 hPa NNW 5.0 km/h 7.2 km/h 91% 0.0 mm 0 W/m2
02:07 13.8 °C 12.6 °C 1017.2 hPa NNW 3.5 km/h 7.2 km/h 92% 0.0 mm 0 W/m2
02:12 13.7 °C 12.4 °C 1017.2 hPa NNW 5.0 km/h 7.2 km/h 92% 0.0 mm 0 W/m2
02:17 13.6 °C 12.3 °C 1016.8 hPa NNW 2.6 km/h 6.1 km/h 92% 0.0 mm 0 W/m2
02:22 13.6 °C 12.5 °C 1017.2 hPa NNW 3.5 km/h 6.1 km/h 93% 0.0 mm 0 W/m2
02:27 13.5 °C 12.4 °C 1016.8 hPa NNW 5.0 km/h 8.7 km/h 93% 0.0 mm 0 W/m2
02:32 13.5 °C 12.4 °C 1016.8 hPa NNW 3.5 km/h 8.7 km/h 93% 0.0 mm 0 W/m2
02:37 13.5 °C 12.4 °C 1016.8 hPa NNW 1.1 km/h 8.7 km/h 93% 0.0 mm 0 W/m2
02:42 13.4 °C 12.3 °C 1017.2 hPa NNW 3.5 km/h 7.2 km/h 93% 0.0 mm 0 W/m2
02:47 13.3 °C 12.2 °C 1016.8 hPa NNW 5.0 km/h 7.2 km/h 93% 0.0 mm 0 W/m2
03:03 13.2 °C 12.3 °C 1017.2 hPa NNW 3.5 km/h 7.2 km/h 94% 0.0 mm 0 W/m2
03:08 13.3 °C 12.5 °C 1017.2 hPa NNW 3.5 km/h 7.2 km/h 95% 0.0 mm 0 W/m2
03:28 13.1 °C 12.2 °C 1017.2 hPa NNW 2.6 km/h 8.7 km/h 94% 0.0 mm 0 W/m2
03:33 13.0 °C 12.1 °C 1017.2 hPa NNW 2.6 km/h 6.1 km/h 94% 0.0 mm 0 W/m2
03:38 13.0 °C 12.1 °C 1017.2 hPa NNW 3.5 km/h 6.1 km/h 94% 0.0 mm 0 W/m2
03:43 12.9 °C 11.9 °C 1017.2 hPa NNW 5.0 km/h 8.7 km/h 94% 0.0 mm 0 W/m2
03:48 12.9 °C 11.9 °C 1017.2 hPa NNW 5.0 km/h 8.7 km/h 94% 0.0 mm 0 W/m2
03:53 12.8 °C 11.9 °C 1016.8 hPa NNW 5.0 km/h 7.2 km/h 94% 0.0 mm 0 W/m2
03:58 12.7 °C 11.8 °C 1017.2 hPa NNW 5.0 km/h 8.7 km/h 94% 0.0 mm 0 W/m2
04:03 12.7 °C 11.8 °C 1017.2 hPa NNW 3.5 km/h 8.7 km/h 94% 0.0 mm 0 W/m2
04:08 12.7 °C 11.9 °C 1017.2 hPa NNW 6.1 km/h 9.7 km/h 95% 0.0 mm 0 W/m2
04:13 12.8 °C 12.0 °C 1017.2 hPa NNW 5.0 km/h 11.1 km/h 95% 0.0 mm 0 W/m2
04:14 12.8 °C 12.0 °C 1017.2 hPa NNW 8.7 km/h 11.1 km/h 95% 0.0 mm 0 W/m2
04:19 12.8 °C 11.9 °C 1017.2 hPa NW 6.1 km/h 11.1 km/h 94% 0.0 mm 0 W/m2
04:25 12.7 °C 11.6 °C 1017.2 hPa NW 5.0 km/h 11.1 km/h 93% 0.0 mm 0 W/m2
04:30 12.6 °C 11.5 °C 1017.2 hPa NNW 3.5 km/h 7.2 km/h 93% 0.0 mm 0 W/m2
04:31 12.6 °C 11.5 °C 1017.2 hPa NNW 6.1 km/h 7.2 km/h 93% 0.0 mm 0 W/m2
04:36 12.5 °C 11.4 °C 1017.2 hPa NNW 5.0 km/h 8.7 km/h 93% 0.0 mm 0 W/m2
04:41 12.4 °C 11.3 °C 1017.2 hPa NNW 6.1 km/h 8.7 km/h 93% 0.0 mm 0 W/m2
04:46 12.4 °C 11.4 °C 1017.2 hPa NNW 6.1 km/h 11.1 km/h 94% 0.0 mm 0 W/m2
04:51 12.4 °C 11.4 °C 1017.2 hPa NW 3.5 km/h 11.1 km/h 94% 0.0 mm 0 W/m2
04:56 12.4 °C 11.4 °C 1017.5 hPa NNW 3.5 km/h 9.7 km/h 94% 0.0 mm 0 W/m2
05:01 12.4 °C 11.4 °C 1017.2 hPa North 5.0 km/h 8.7 km/h 94% 0.0 mm 0 W/m2
05:06 12.4 °C 11.4 °C 1017.5 hPa NNW 3.5 km/h 8.7 km/h 94% 0.0 mm 0 W/m2
05:11 12.4 °C 11.4 °C 1017.5 hPa NNW 5.0 km/h 7.2 km/h 94% 0.0 mm 0 W/m2
05:16 12.4 °C 11.4 °C 1017.8 hPa NNW 6.1 km/h 7.2 km/h 94% 0.0 mm 0 W/m2
05:21 12.4 °C 11.4 °C 1017.5 hPa NNW 5.0 km/h 7.2 km/h 94% 0.0 mm 0 W/m2
05:26 12.4 °C 11.4 °C 1017.5 hPa North 6.1 km/h 8.7 km/h 94% 0.0 mm 0 W/m2
05:31 12.3 °C 11.4 °C 1017.5 hPa North 5.0 km/h 8.7 km/h 94% 0.0 mm 0 W/m2
05:36 12.2 °C 11.3 °C 1017.8 hPa NNW 3.5 km/h 8.7 km/h 94% 0.0 mm 0 W/m2
05:41 12.1 °C 11.2 °C 1017.8 hPa NW 3.5 km/h 7.2 km/h 94% 0.0 mm 0 W/m2
05:46 12.0 °C 11.1 °C 1017.8 hPa NNW 6.1 km/h 7.2 km/h 94% 0.0 mm 0 W/m2
05:50 11.9 °C 11.1 °C 1018.2 hPa NNW 3.5 km/h 8.7 km/h 95% 0.0 mm 0 W/m2
05:55 11.9 °C 11.1 °C 1017.8 hPa NNW 8.7 km/h 9.7 km/h 95% 0.0 mm 0 W/m2
06:00 12.0 °C 11.2 °C 1018.2 hPa NNW 5.0 km/h 9.7 km/h 95% 0.0 mm 0 W/m2
06:05 12.1 °C 11.3 °C 1018.2 hPa NNW 6.1 km/h 9.7 km/h 95% 0.0 mm 0 W/m2
06:10 12.2 °C 11.6 °C 1017.8 hPa NNW 2.6 km/h 9.7 km/h 96% 0.0 mm 0 W/m2
06:15 12.0 °C 11.4 °C 1018.2 hPa NNW 3.5 km/h 8.7 km/h 96% 0.0 mm 0 W/m2
06:20 12.0 °C 11.2 °C 1018.2 hPa NNW 5.0 km/h 7.2 km/h 95% 0.0 mm 1 W/m2
06:25 11.9 °C 11.3 °C 1018.5 hPa NNW 1.1 km/h 7.2 km/h 96% 0.0 mm 3 W/m2
06:30 11.9 °C 11.4 °C 1018.2 hPa NNW 3.5 km/h 7.2 km/h 97% 0.0 mm 6 W/m2
06:35 12.0 °C 11.4 °C 1018.2 hPa NNW 2.6 km/h 6.1 km/h 96% 0.0 mm 9 W/m2
06:40 12.1 °C 11.5 °C 1018.2 hPa NNW 6.1 km/h 8.7 km/h 96% 0.0 mm 13 W/m2
06:45 12.2 °C 11.6 °C 1018.5 hPa NNW 8.7 km/h 11.1 km/h 96% 0.0 mm 16 W/m2
06:50 12.2 °C 11.6 °C 1018.2 hPa NNW 8.7 km/h 12.2 km/h 96% 0.0 mm 21 W/m2
06:55 12.3 °C 11.5 °C 1018.2 hPa NNW 5.0 km/h 12.2 km/h 95% 0.0 mm 35 W/m2
07:00 12.5 °C 11.7 °C 1018.5 hPa NW 7.2 km/h 12.2 km/h 95% 0.0 mm 66 W/m2
07:05 12.8 °C 11.9 °C 1018.5 hPa NNW 6.1 km/h 11.1 km/h 94% 0.0 mm 74 W/m2
07:10 13.0 °C 11.7 °C 1018.8 hPa NNW 6.1 km/h 11.1 km/h 92% 0.0 mm 82 W/m2
07:15 13.3 °C 11.9 °C 1018.5 hPa NNW 7.2 km/h 12.2 km/h 91% 0.0 mm 86 W/m2
07:20 13.5 °C 11.9 °C 1018.5 hPa NNW 5.0 km/h 14.8 km/h 90% 0.0 mm 91 W/m2
07:25 13.8 °C 11.8 °C 1018.5 hPa NW 9.7 km/h 14.8 km/h 88% 0.0 mm 97 W/m2
07:30 14.1 °C 12.0 °C 1018.5 hPa NW 3.5 km/h 14.8 km/h 87% 0.0 mm 105 W/m2
07:35 14.5 °C 12.2 °C 1018.8 hPa NNW 7.2 km/h 14.8 km/h 86% 0.0 mm 113 W/m2
07:40 14.5 °C 12.0 °C 1018.5 hPa NNW 6.1 km/h 15.8 km/h 85% 0.0 mm 124 W/m2
07:45 14.8 °C 12.3 °C 1018.8 hPa NNW 7.2 km/h 15.8 km/h 85% 0.0 mm 136 W/m2
07:50 15.2 °C 12.5 °C 1018.8 hPa NNW 8.7 km/h 13.4 km/h 84% 0.0 mm 149 W/m2
07:55 15.2 °C 12.2 °C 1018.8 hPa NNW 8.7 km/h 14.8 km/h 82% 0.0 mm 161 W/m2
08:00 15.5 °C 12.4 °C 1018.8 hPa NNW 7.2 km/h 14.8 km/h 82% 0.0 mm 173 W/m2
08:05 15.7 °C 12.4 °C 1018.8 hPa North 7.2 km/h 14.8 km/h 81% 0.0 mm 183 W/m2
08:10 16.2 °C 12.8 °C 1018.8 hPa North 5.0 km/h 11.1 km/h 80% 0.0 mm 196 W/m2
08:15 16.8 °C 12.8 °C 1018.8 hPa NNW 6.1 km/h 11.1 km/h 77% 0.0 mm 209 W/m2
08:20 16.9 °C 12.4 °C 1018.8 hPa NNW 7.2 km/h 13.4 km/h 75% 0.0 mm 222 W/m2
08:25 17.1 °C 12.4 °C 1018.8 hPa NNW 7.2 km/h 13.4 km/h 74% 0.0 mm 234 W/m2
08:30 17.4 °C 12.5 °C 1018.8 hPa NNW 7.2 km/h 12.2 km/h 73% 0.0 mm 246 W/m2
08:35 17.9 °C 12.8 °C 1018.8 hPa NNW 3.5 km/h 11.1 km/h 72% 0.0 mm 260 W/m2
08:40 18.5 °C 12.9 °C 1018.8 hPa NNW 6.1 km/h 9.7 km/h 70% 0.0 mm 275 W/m2
08:45 18.6 °C 12.6 °C 1018.8 hPa NNW 5.0 km/h 11.1 km/h 68% 0.0 mm 289 W/m2
08:50 18.8 °C 12.6 °C 1018.8 hPa NNW 9.7 km/h 11.1 km/h 67% 0.0 mm 303 W/m2
08:55 18.8 °C 12.6 °C 1019.2 hPa NNW 3.5 km/h 11.1 km/h 67% 0.0 mm 316 W/m2
09:14 20.3 °C 12.6 °C 1018.8 hPa North 5.0 km/h 9.7 km/h 61% 0.0 mm 377 W/m2
09:19 21.0 °C 12.7 °C 1018.8 hPa North 5.0 km/h 8.7 km/h 59% 0.0 mm 394 W/m2
09:25 21.0 °C 12.2 °C 1019.2 hPa North 2.6 km/h 7.2 km/h 57% 0.0 mm 414 W/m2
09:30 21.3 °C 12.4 °C 1019.2 hPa NNE 5.0 km/h 11.1 km/h 57% 0.0 mm 433 W/m2
09:35 21.6 °C 12.4 °C 1019.2 hPa North 3.5 km/h 11.1 km/h 56% 0.0 mm 452 W/m2
09:40 21.9 °C 12.7 °C 1019.2 hPa NNW 2.6 km/h 8.7 km/h 56% 0.0 mm 471 W/m2
09:45 22.0 °C 12.6 °C 1018.8 hPa Calm   7.2 km/h 55% 0.0 mm 490 W/m2
09:50 22.9 °C 13.1 °C 1019.2 hPa NNW 1.1 km/h 7.2 km/h 54% 0.0 mm 513 W/m2
09:55 23.4 °C 13.3 °C 1019.2 hPa North 2.6 km/h 7.2 km/h 53% 0.0 mm 535 W/m2
10:00 23.6 °C 13.2 °C 1019.2 hPa NNW 5.0 km/h 7.2 km/h 52% 0.0 mm 554 W/m2
10:05 23.8 °C 13.9 °C 1019.2 hPa NNW 5.0 km/h 7.2 km/h 54% 0.0 mm 574 W/m2
10:10 23.9 °C 13.4 °C 1019.2 hPa North 2.6 km/h 7.2 km/h 52% 0.0 mm 594 W/m2
10:15 24.0 °C 12.7 °C 1018.8 hPa North 1.1 km/h 12.2 km/h 49% 0.0 mm 613 W/m2
10:20 24.2 °C 12.5 °C 1019.2 hPa North 3.5 km/h 12.2 km/h 48% 0.0 mm 631 W/m2
10:25 24.2 °C 12.5 °C 1018.8 hPa NW 3.5 km/h 7.2 km/h 48% 0.0 mm 649 W/m2
10:30 23.7 °C 13.8 °C 1019.2 hPa South 11.1 km/h 15.8 km/h 54% 0.0 mm 665 W/m2
10:35 22.4 °C 13.7 °C 1019.2 hPa South 5.0 km/h 17.2 km/h 58% 0.0 mm 673 W/m2
10:40 22.2 °C 14.1 °C 1019.5 hPa South 6.1 km/h 17.2 km/h 60% 0.0 mm 690 W/m2
10:45 22.0 °C 14.2 °C 1019.2 hPa South 8.7 km/h 14.8 km/h 61% 0.0 mm 705 W/m2
10:50 22.2 °C 14.1 °C 1019.2 hPa South 12.2 km/h 15.8 km/h 60% 0.0 mm 728 W/m2
10:55 22.1 °C 13.7 °C 1019.2 hPa SSW 11.1 km/h 15.8 km/h 59% 0.0 mm 743 W/m2
11:00 22.2 °C 14.1 °C 1019.2 hPa SW 8.7 km/h 15.8 km/h 60% 0.0 mm 770 W/m2
11:05 22.6 °C 14.7 °C 1019.5 hPa SSW 5.0 km/h 13.4 km/h 61% 0.0 mm 801 W/m2
11:10 22.9 °C 13.7 °C 1019.2 hPa South 6.1 km/h 15.8 km/h 56% 0.0 mm 820 W/m2
11:15 22.7 °C 12.9 °C 1019.2 hPa South 5.0 km/h 15.8 km/h 54% 0.0 mm 839 W/m2
11:20 22.6 °C 12.8 °C 1019.2 hPa SSE 11.1 km/h 14.8 km/h 54% 0.0 mm 852 W/m2
11:25 22.9 °C 13.1 °C 1019.2 hPa South 11.1 km/h 15.8 km/h 54% 0.0 mm 867 W/m2
11:30 23.2 °C 13.9 °C 1019.2 hPa South 3.5 km/h 15.8 km/h 56% 0.0 mm 882 W/m2
11:35 23.4 °C 14.2 °C 1019.2 hPa South 8.7 km/h 15.8 km/h 56% 0.0 mm 895 W/m2
11:40 22.7 °C 13.5 °C 1018.8 hPa South 7.2 km/h 17.2 km/h 56% 0.0 mm 901 W/m2
11:45 22.7 °C 12.9 °C 1019.2 hPa SSE 8.7 km/h 17.2 km/h 54% 0.0 mm 911 W/m2
11:50 22.8 °C 13.6 °C 1019.2 hPa SSE 7.2 km/h 15.8 km/h 56% 0.0 mm 916 W/m2
11:55 23.1 °C 13.6 °C 1018.8 hPa SSE 5.0 km/h 15.8 km/h 55% 0.0 mm 924 W/m2
12:00 23.2 °C 13.4 °C 1018.8 hPa SE 11.1 km/h 17.2 km/h 54% 0.0 mm 936 W/m2
12:05 23.0 °C 13.8 °C 1019.2 hPa SSE 9.7 km/h 17.2 km/h 56% 0.0 mm 937 W/m2
12:10 22.9 °C 13.9 °C 1019.2 hPa South 7.2 km/h 19.5 km/h 57% 0.0 mm 941 W/m2
12:15 22.9 °C 14.2 °C 1019.2 hPa South 7.2 km/h 19.5 km/h 58% 0.0 mm 945 W/m2
12:20 23.4 °C 13.9 °C 1019.2 hPa South 8.7 km/h 17.2 km/h 55% 0.0 mm 952 W/m2
12:25 23.3 °C 14.1 °C 1019.2 hPa SE 8.7 km/h 15.8 km/h 56% 0.0 mm 955 W/m2
12:30 23.4 °C 14.2 °C 1019.2 hPa SE 6.1 km/h 15.8 km/h 56% 0.0 mm 959 W/m2
12:35 23.4 °C 14.4 °C 1019.2 hPa SE 5.0 km/h 17.2 km/h 57% 0.0 mm 962 W/m2
12:40 23.4 °C 14.4 °C 1019.2 hPa SE 7.2 km/h 18.3 km/h 57% 0.0 mm 964 W/m2
12:45 23.2 °C 14.5 °C 1018.8 hPa SSE 5.0 km/h 18.3 km/h 58% 0.0 mm 961 W/m2
12:50 23.7 °C 14.7 °C 1018.8 hPa SSE 7.2 km/h 17.2 km/h 57% 0.0 mm 966 W/m2
12:55 23.9 °C 14.9 °C 1018.8 hPa SE 5.0 km/h 15.8 km/h 57% 0.0 mm 968 W/m2
13:00 24.0 °C 15.0 °C 1018.8 hPa SE 5.0 km/h 15.8 km/h 57% 0.0 mm 966 W/m2
13:05 23.9 °C 14.9 °C 1018.8 hPa SSE 11.1 km/h 17.2 km/h 57% 0.0 mm 964 W/m2
13:10 23.8 °C 14.8 °C 1018.8 hPa SE 7.2 km/h 17.2 km/h 57% 0.0 mm 957 W/m2
13:15 23.7 °C 15.2 °C 1018.8 hPa SE 7.2 km/h 19.5 km/h 59% 0.0 mm 955 W/m2
13:20 23.5 °C 15.1 °C 1018.8 hPa SE 6.1 km/h 19.5 km/h 59% 0.0 mm 950 W/m2
13:25 23.7 °C 15.2 °C 1018.8 hPa SE 6.1 km/h 21.9 km/h 59% 0.0 mm 946 W/m2
13:30 23.7 °C 15.8 °C 1018.5 hPa SE 11.1 km/h 21.9 km/h 61% 0.0 mm 942 W/m2
13:35 23.6 °C 15.9 °C 1018.5 hPa SE 8.7 km/h 15.8 km/h 62% 0.0 mm 935 W/m2
13:40 23.6 °C 15.9 °C 1018.5 hPa SE 6.1 km/h 17.2 km/h 62% 0.0 mm 931 W/m2
13:45 23.8 °C 16.3 °C 1018.5 hPa SE 12.2 km/h 18.3 km/h 63% 0.0 mm 928 W/m2
13:50 23.7 °C 16.3 °C 1018.2 hPa SE 8.7 km/h 18.3 km/h 63% 0.0 mm 916 W/m2
13:55 24.2 °C 16.2 °C 1018.2 hPa SE 8.7 km/h 17.2 km/h 61% 0.0 mm 911 W/m2
14:00 24.1 °C 16.1 °C 1017.8 hPa SE 8.7 km/h 18.3 km/h 61% 0.0 mm 903 W/m2
14:05 24.0 °C 15.2 °C 1017.8 hPa SE 12.2 km/h 23.3 km/h 58% 0.0 mm 896 W/m2
14:10 24.1 °C 15.3 °C 1018.2 hPa SE 8.7 km/h 23.3 km/h 58% 0.0 mm 889 W/m2
14:15 24.6 °C 15.6 °C 1017.8 hPa ESE 9.7 km/h 20.9 km/h 57% 0.0 mm 882 W/m2
14:20 25.1 °C 14.6 °C 1017.8 hPa SE 9.7 km/h 20.9 km/h 52% 0.0 mm 874 W/m2
14:25 25.4 °C 14.8 °C 1017.8 hPa SE 5.0 km/h 20.9 km/h 52% 0.0 mm 872 W/m2
14:30 25.7 °C 14.2 °C 1017.8 hPa SSE 8.7 km/h 23.3 km/h 49% 0.0 mm 866 W/m2
14:35 25.8 °C 14.3 °C 1017.5 hPa SE 7.2 km/h 23.3 km/h 49% 0.0 mm 853 W/m2
14:40 25.6 °C 14.4 °C 1017.5 hPa ESE 8.7 km/h 20.9 km/h 50% 0.0 mm 840 W/m2
14:46 25.5 °C 14.7 °C 1017.5 hPa ESE 9.7 km/h 20.9 km/h 51% 0.0 mm 825 W/m2
14:51 25.6 °C 15.1 °C 1017.5 hPa SE 11.1 km/h 20.9 km/h 52% 0.0 mm 815 W/m2
14:56 25.4 °C 15.2 °C 1017.2 hPa SE 7.2 km/h 21.9 km/h 53% 0.0 mm 774 W/m2
15:01 25.6 °C 15.3 °C 1017.5 hPa SE 12.2 km/h 21.9 km/h 53% 0.0 mm 790 W/m2
15:06 25.6 °C 14.7 °C 1017.5 hPa SE 8.7 km/h 21.9 km/h 51% 0.0 mm 779 W/m2
15:11 25.8 °C 14.9 °C 1016.8 hPa ESE 12.2 km/h 21.9 km/h 51% 0.0 mm 768 W/m2
15:16 25.9 °C 14.7 °C 1016.8 hPa ESE 8.7 km/h 21.9 km/h 50% 0.0 mm 741 W/m2
15:21 26.1 °C 13.9 °C 1016.8 hPa ESE 12.2 km/h 21.9 km/h 47% 0.0 mm 710 W/m2
15:26 26.1 °C 13.9 °C 1016.8 hPa SE 12.2 km/h 24.5 km/h 47% 0.0 mm 680 W/m2
15:31 26.4 °C 14.2 °C 1016.8 hPa ESE 9.7 km/h 24.5 km/h 47% 0.0 mm 691 W/m2
15:36 26.7 °C 14.5 °C 1016.8 hPa ESE 12.2 km/h 19.5 km/h 47% 0.0 mm 660 W/m2
15:41 27.0 °C 14.1 °C 1016.5 hPa ESE 7.2 km/h 15.8 km/h 45% 0.0 mm 649 W/m2
15:46 27.3 °C 14.0 °C 1016.8 hPa SE 9.7 km/h 17.2 km/h 44% 0.0 mm 617 W/m2
15:51 27.4 °C 14.1 °C 1016.5 hPa SSE 6.1 km/h 20.9 km/h 44% 0.0 mm 432 W/m2
15:56 27.8 °C 14.4 °C 1016.5 hPa SE 8.7 km/h 20.9 km/h 44% 0.0 mm 677 W/m2
16:01 28.2 °C 15.2 °C 1016.8 hPa ESE 6.1 km/h 18.3 km/h 45% 0.0 mm 665 W/m2
16:06 28.4 °C 15.3 °C 1016.8 hPa ESE 7.2 km/h 17.2 km/h 45% 0.0 mm 656 W/m2
16:11 28.3 °C 15.3 °C 1016.8 hPa ESE 8.7 km/h 15.8 km/h 45% 0.0 mm 473 W/m2
16:16 28.1 °C 15.1 °C 1016.5 hPa ESE 7.2 km/h 18.3 km/h 45% 0.0 mm 444 W/m2
16:21 28.1 °C 15.1 °C 1016.5 hPa SE 11.1 km/h 18.3 km/h 45% 0.0 mm 471 W/m2
16:26 28.1 °C 15.1 °C 1016.5 hPa ESE 9.7 km/h 18.3 km/h 45% 0.0 mm 601 W/m2
16:31 28.0 °C 15.0 °C 1016.5 hPa East 8.7 km/h 17.2 km/h 45% 0.0 mm 480 W/m2
16:36 28.2 °C 15.2 °C 1016.1 hPa ESE 7.2 km/h 20.9 km/h 45% 0.0 mm 534 W/m2
16:41 28.3 °C 15.3 °C 1016.1 hPa ESE 9.7 km/h 20.9 km/h 45% 0.0 mm 562 W/m2
16:46 28.2 °C 14.8 °C 1016.1 hPa ESE 9.7 km/h 15.8 km/h 44% 0.0 mm 550 W/m2
16:51 28.6 °C 14.8 °C 1016.5 hPa SE 5.0 km/h 17.2 km/h 43% 0.0 mm 538 W/m2
16:56 28.9 °C 15.1 °C 1016.1 hPa SE 8.7 km/h 17.2 km/h 43% 0.0 mm 526 W/m2
17:01 28.8 °C 15.0 °C 1016.1 hPa ESE 8.7 km/h 15.8 km/h 43% 0.0 mm 513 W/m2
17:06 28.8 °C 15.0 °C 1016.1 hPa ESE 7.2 km/h 15.8 km/h 43% 0.0 mm 494 W/m2
17:11 29.3 °C 14.7 °C 1016.1 hPa SE 6.1 km/h 14.8 km/h 41% 0.0 mm 481 W/m2
17:16 29.0 °C 14.4 °C 1016.1 hPa ESE 5.0 km/h 15.8 km/h 41% 0.0 mm 464 W/m2
17:21 29.7 °C 15.1 °C 1016.1 hPa ESE 6.1 km/h 15.8 km/h 41% 0.0 mm 451 W/m2
17:26 29.9 °C 14.9 °C 1016.1 hPa ESE 3.5 km/h 11.1 km/h 40% 0.0 mm 436 W/m2
17:31 30.6 °C 15.1 °C 1016.1 hPa ESE 3.5 km/h 9.7 km/h 39% 0.0 mm 422 W/m2
17:36 30.4 °C 15.3 °C 1016.1 hPa SE 2.6 km/h 14.8 km/h 40% 0.0 mm 409 W/m2
17:41 30.3 °C 14.8 °C 1016.1 hPa ESE 5.0 km/h 14.8 km/h 39% 0.0 mm 391 W/m2
17:46 30.3 °C 15.2 °C 1016.1 hPa ESE 3.5 km/h 9.7 km/h 40% 0.0 mm 377 W/m2
17:51 30.6 °C 15.1 °C 1016.1 hPa SE 5.0 km/h 9.7 km/h 39% 0.0 mm 361 W/m2
17:56 30.1 °C 15.1 °C 1016.1 hPa ESE 2.6 km/h 9.7 km/h 40% 0.0 mm 346 W/m2
18:01 30.2 °C 15.1 °C 1015.8 hPa ESE 3.5 km/h 9.7 km/h 40% 0.0 mm 332 W/m2
18:06 30.0 °C 15.3 °C 1016.1 hPa SE 9.7 km/h 12.2 km/h 41% 0.0 mm 318 W/m2
18:11 29.4 °C 15.9 °C 1016.1 hPa SSE 3.5 km/h 12.2 km/h 44% 0.0 mm 299 W/m2
18:16 29.8 °C 16.3 °C 1016.1 hPa SSE 7.2 km/h 12.2 km/h 44% 0.0 mm 286 W/m2
18:21 28.9 °C 15.8 °C 1016.1 hPa SSE 8.7 km/h 15.8 km/h 45% 0.0 mm 270 W/m2
18:26 28.7 °C 15.9 °C 1016.1 hPa SSE 8.7 km/h 15.8 km/h 46% 0.0 mm 255 W/m2
18:31 28.5 °C 15.8 °C 1016.1 hPa SSE 6.1 km/h 15.8 km/h 46% 0.0 mm 242 W/m2
18:36 28.1 °C 15.8 °C 1016.1 hPa South 11.1 km/h 14.8 km/h 47% 0.0 mm 228 W/m2
18:41 27.5 °C 15.2 °C 1016.1 hPa SSE 9.7 km/h 14.8 km/h 47% 0.0 mm 203 W/m2
18:46 26.6 °C 15.3 °C 1016.1 hPa SSE 5.0 km/h 14.8 km/h 50% 0.0 mm 72 W/m2
18:51 26.0 °C 15.1 °C 1016.5 hPa SSE 6.1 km/h 12.2 km/h 51% 0.0 mm 119 W/m2
18:56 26.3 °C 14.8 °C 1016.1 hPa SE 6.1 km/h 13.4 km/h 49% 0.0 mm 121 W/m2
19:01 26.6 °C 14.7 °C 1016.1 hPa SSE 5.0 km/h 13.4 km/h 48% 0.0 mm 96 W/m2
19:06 25.9 °C 15.0 °C 1016.5 hPa South 1.1 km/h 9.7 km/h 51% 0.0 mm 48 W/m2
19:11 25.7 °C 15.4 °C 1016.5 hPa Calm   9.7 km/h 53% 0.0 mm 92 W/m2
19:16 26.0 °C 14.8 °C 1016.5 hPa ESE 2.6 km/h 8.7 km/h 50% 0.0 mm 47 W/m2
19:21 25.5 °C 15.2 °C 1016.8 hPa Calm   7.2 km/h 53% 0.0 mm 43 W/m2
19:26 25.2 °C 15.6 °C 1016.8 hPa SSE 3.5 km/h 7.2 km/h 55% 0.0 mm 43 W/m2
19:31 24.8 °C 16.0 °C 1016.8 hPa SW 3.5 km/h 7.2 km/h 58% 0.0 mm 29 W/m2
19:36 24.1 °C 16.1 °C 1016.8 hPa SW 5.0 km/h 7.2 km/h 61% 0.0 mm 23 W/m2
19:41 23.7 °C 16.0 °C 1016.8 hPa SW 3.5 km/h 7.2 km/h 62% 0.0 mm 35 W/m2
19:46 23.7 °C 15.5 °C 1016.8 hPa Calm   7.2 km/h 60% 0.0 mm 26 W/m2
19:51 23.8 °C 15.6 °C 1016.8 hPa Calm   7.2 km/h 60% 0.0 mm 26 W/m2
19:56 23.7 °C 15.8 °C 1016.8 hPa Calm   2.6 km/h 61% 0.0 mm 26 W/m2
20:01 23.6 °C 15.7 °C 1016.8 hPa Calm   2.6 km/h 61% 0.0 mm 18 W/m2
20:06 23.3 °C 15.6 °C 1016.8 hPa Calm   1.1 km/h 62% 0.0 mm 14 W/m2
20:11 22.8 °C 15.4 °C 1016.8 hPa Calm   1.1 km/h 63% 0.0 mm 12 W/m2
20:16 22.4 °C 15.3 °C 1016.8 hPa Calm     64% 0.0 mm 7 W/m2
20:21 22.0 °C 14.9 °C 1016.8 hPa Calm     64% 0.0 mm 4 W/m2
20:26 21.8 °C 15.2 °C 1017.2 hPa Calm   2.6 km/h 66% 0.0 mm 2 W/m2
20:31 21.5 °C 14.9 °C 1017.2 hPa Calm   2.6 km/h 66% 0.0 mm 0 W/m2
20:36 21.2 °C 14.8 °C 1017.5 hPa WNW 1.1 km/h 2.6 km/h 67% 0.0 mm 0 W/m2
20:42 21.1 °C 15.2 °C 1017.5 hPa NW 1.1 km/h 3.5 km/h 69% 0.0 mm 0 W/m2
20:47 21.0 °C 15.8 °C 1017.5 hPa NNW 5.0 km/h 7.2 km/h 72% 0.0 mm 0 W/m2
20:52 21.0 °C 15.6 °C 1017.5 hPa NW 1.1 km/h 7.2 km/h 71% 0.0 mm 0 W/m2
20:57 20.9 °C 15.7 °C 1017.5 hPa Calm   5.0 km/h 72% 0.0 mm 0 W/m2
21:02 20.7 °C 15.7 °C 1017.5 hPa Calm   3.5 km/h 73% 0.0 mm 0 W/m2
21:07 20.6 °C 15.6 °C 1017.8 hPa Calm   1.1 km/h 73% 0.0 mm 0 W/m2
21:12 20.5 °C 15.7 °C 1017.8 hPa Calm   2.6 km/h 74% 0.0 mm 0 W/m2
21:17 20.3 °C 15.5 °C 1017.8 hPa Calm   2.6 km/h 74% 0.0 mm 0 W/m2
21:22 20.1 °C 15.3 °C 1017.8 hPa Calm   1.1 km/h 74% 0.0 mm 0 W/m2
21:27 20.0 °C 15.4 °C 1017.8 hPa SW 1.1 km/h 2.6 km/h 75% 0.0 mm 0 W/m2
21:32 19.9 °C 15.8 °C 1018.2 hPa Calm   2.6 km/h 77% 0.0 mm 0 W/m2
21:37 19.7 °C 15.4 °C 1018.2 hPa Calm   2.6 km/h 76% 0.0 mm 0 W/m2
21:42 19.5 °C 15.2 °C 1018.2 hPa Calm   1.1 km/h 76% 0.0 mm 0 W/m2
21:47 19.4 °C 15.3 °C 1018.2 hPa Calm   1.1 km/h 77% 0.0 mm 0 W/m2
21:52 19.3 °C 15.2 °C 1018.2 hPa Calm   1.1 km/h 77% 0.0 mm 0 W/m2
21:57 19.2 °C 15.3 °C 1018.2 hPa Calm   1.1 km/h 78% 0.0 mm 0 W/m2
22:02 19.3 °C 15.6 °C 1018.5 hPa Calm   2.6 km/h 79% 0.0 mm 0 W/m2
22:07 19.3 °C 15.6 °C 1018.5 hPa Calm   2.6 km/h 79% 0.0 mm 0 W/m2
22:12 19.1 °C 15.4 °C 1018.2 hPa Calm   1.1 km/h 79% 0.0 mm 0 W/m2
22:17 19.1 °C 15.6 °C 1018.2 hPa Calm     80% 0.0 mm 0 W/m2
22:22 19.2 °C 15.9 °C 1018.2 hPa Calm   2.6 km/h 81% 0.0 mm 0 W/m2
22:27 19.1 °C 15.8 °C 1018.5 hPa Calm   2.6 km/h 81% 0.0 mm 0 W/m2
22:32 18.9 °C 15.6 °C 1018.2 hPa Calm   1.1 km/h 81% 0.0 mm 0 W/m2
22:37 18.7 °C 15.4 °C 1018.2 hPa Calm     81% 0.0 mm 0 W/m2
22:42 18.6 °C 15.5 °C 1018.2 hPa Calm     82% 0.0 mm 0 W/m2
22:47 18.5 °C 15.6 °C 1018.2 hPa Calm     83% 0.0 mm 0 W/m2
22:52 18.4 °C 15.4 °C 1018.2 hPa Calm     83% 0.0 mm 0 W/m2
22:57 18.3 °C 15.4 °C 1018.2 hPa Calm     83% 0.0 mm 0 W/m2
23:02 18.1 °C 15.4 °C 1018.2 hPa Calm     84% 0.0 mm 0 W/m2
23:07 18.0 °C 15.4 °C 1018.2 hPa Calm     85% 0.0 mm 0 W/m2
23:12 17.9 °C 15.2 °C 1018.2 hPa Calm     84% 0.0 mm 0 W/m2
23:17 17.8 °C 15.1 °C 1018.2 hPa Calm     84% 0.0 mm 0 W/m2
23:22 17.7 °C 15.2 °C 1018.2 hPa Calm     85% 0.0 mm 0 W/m2
23:27 17.7 °C 15.2 °C 1017.8 hPa Calm     85% 0.0 mm 0 W/m2
23:32 17.6 °C 15.2 °C 1017.8 hPa Calm     86% 0.0 mm 0 W/m2
23:37 17.7 °C 15.5 °C 1017.5 hPa Calm     87% 0.0 mm 0 W/m2
23:42 17.6 °C 15.4 °C 1017.8 hPa Calm     87% 0.0 mm 0 W/m2
23:47 17.6 °C 15.4 °C 1017.8 hPa Calm     87% 0.0 mm 0 W/m2
23:52 17.5 °C 15.3 °C 1017.8 hPa Calm     87% 0.0 mm 0 W/m2
23:57 17.4 °C 15.2 °C 1017.8 hPa Calm     87% 0.0 mm 0 W/m2
Northern Hawkes Bay. New Zealand Historic Data
Compliments of Weather Underground - 2 mb